sensor_id;sensor_type;location;lat;lon;timestamp;pressure;altitude;pressure_sealevel;temperature;humidity
19761;BME280;10039;42.632;23.408;2023-04-07T00:02:02;94694.94;;;4.10;50.44
19761;BME280;10039;42.632;23.408;2023-04-07T00:04:31;94722.50;;;4.26;49.97
19761;BME280;10039;42.632;23.408;2023-04-07T00:06:58;94715.72;;;4.29;50.09
19761;BME280;10039;42.632;23.408;2023-04-07T00:09:24;94731.94;;;4.44;50.24
19761;BME280;10039;42.632;23.408;2023-04-07T00:11:50;94709.28;;;4.43;50.07
19761;BME280;10039;42.632;23.408;2023-04-07T00:14:16;94734.59;;;4.58;50.67
19761;BME280;10039;42.632;23.408;2023-04-07T00:16:42;94685.16;;;4.31;50.80
19761;BME280;10039;42.632;23.408;2023-04-07T00:19:08;94692.66;;;3.94;53.08
19761;BME280;10039;42.632;23.408;2023-04-07T00:21:34;94692.91;;;3.40;55.04
19761;BME280;10039;42.632;23.408;2023-04-07T00:24:01;94712.88;;;3.41;55.63
19761;BME280;10039;42.632;23.408;2023-04-07T00:26:28;94715.09;;;3.32;56.42
19761;BME280;10039;42.632;23.408;2023-04-07T00:28:58;94734.72;;;3.38;56.86
19761;BME280;10039;42.632;23.408;2023-04-07T00:31:25;94740.00;;;3.42;56.79
19761;BME280;10039;42.632;23.408;2023-04-07T00:33:53;94737.78;;;3.51;57.14
19761;BME280;10039;42.632;23.408;2023-04-07T00:36:20;94681.84;;;3.04;57.87
19761;BME280;10039;42.632;23.408;2023-04-07T00:38:46;94688.56;;;2.94;58.14
19761;BME280;10039;42.632;23.408;2023-04-07T00:41:12;94699.88;;;2.98;58.52
19761;BME280;10039;42.632;23.408;2023-04-07T00:43:38;94720.22;;;3.01;59.14
19761;BME280;10039;42.632;23.408;2023-04-07T00:46:06;94698.84;;;2.49;60.40
19761;BME280;10039;42.632;23.408;2023-04-07T00:48:37;94731.06;;;2.86;60.22
19761;BME280;10039;42.632;23.408;2023-04-07T00:51:04;94751.81;;;2.94;60.44
19761;BME280;10039;42.632;23.408;2023-04-07T00:53:32;94706.56;;;2.82;60.21
19761;BME280;10039;42.632;23.408;2023-04-07T00:56:01;94734.59;;;3.11;60.05
19761;BME280;10039;42.632;23.408;2023-04-07T00:58:27;94685.06;;;2.76;60.00
19761;BME280;10039;42.632;23.408;2023-04-07T01:01:07;94714.59;;;3.06;59.82
19761;BME280;10039;42.632;23.408;2023-04-07T01:04:01;94682.13;;;2.88;59.86
19761;BME280;10039;42.632;23.408;2023-04-07T01:06:35;94731.22;;;3.14;59.94
19761;BME280;10039;42.632;23.408;2023-04-07T01:09:42;94709.00;;;3.18;59.63
19761;BME280;10039;42.632;23.408;2023-04-07T01:15:11;94697.53;;;2.83;60.16
19761;BME280;10039;42.632;23.408;2023-04-07T01:17:43;94681.19;;;2.53;60.56
19761;BME280;10039;42.632;23.408;2023-04-07T01:20:18;94725.31;;;2.73;61.52
19761;BME280;10039;42.632;23.408;2023-04-07T01:22:56;94669.41;;;2.36;61.71
19761;BME280;10039;42.632;23.408;2023-04-07T01:30:56;94725.41;;;2.87;61.45
19761;BME280;10039;42.632;23.408;2023-04-07T01:33:25;94681.25;;;2.63;61.48
19761;BME280;10039;42.632;23.408;2023-04-07T01:35:56;94685.50;;;2.82;61.05
19761;BME280;10039;42.632;23.408;2023-04-07T01:38:28;94674.16;;;2.74;61.03
19761;BME280;10039;42.632;23.408;2023-04-07T01:40:58;94678.94;;;2.55;61.48
19761;BME280;10039;42.632;23.408;2023-04-07T01:43:25;94665.78;;;2.55;61.28
19761;BME280;10039;42.632;23.408;2023-04-07T01:45:54;94682.03;;;2.74;61.45
19761;BME280;10039;42.632;23.408;2023-04-07T01:48:21;94687.78;;;2.90;61.17
19761;BME280;10039;42.632;23.408;2023-04-07T01:50:52;94687.84;;;2.97;60.87
19761;BME280;10039;42.632;23.408;2023-04-07T01:53:20;94678.03;;;2.94;60.63
19761;BME280;10039;42.632;23.408;2023-04-07T01:55:49;94665.09;;;2.68;60.74
19761;BME280;10039;42.632;23.408;2023-04-07T01:58:18;94663.66;;;2.81;60.84
19761;BME280;10039;42.632;23.408;2023-04-07T02:06:36;94664.34;;;2.71;60.75
19761;BME280;10039;42.632;23.408;2023-04-07T02:09:06;94663.66;;;2.81;60.53
19761;BME280;10039;42.632;23.408;2023-04-07T02:11:38;94647.41;;;2.69;60.78
19761;BME280;10039;42.632;23.408;2023-04-07T02:14:08;94693.16;;;3.08;60.90
19761;BME280;10039;42.632;23.408;2023-04-07T02:16:36;94652.41;;;2.91;60.39
19761;BME280;10039;42.632;23.408;2023-04-07T02:19:02;94684.13;;;3.12;60.22
19761;BME280;10039;42.632;23.408;2023-04-07T02:21:34;94656.97;;;2.98;60.41
19761;BME280;10039;42.632;23.408;2023-04-07T02:24:06;94652.47;;;3.02;60.08
19761;BME280;10039;42.632;23.408;2023-04-07T02:26:34;94674.75;;;3.22;59.84
19761;BME280;10039;42.632;23.408;2023-04-07T02:29:03;94688.66;;;3.15;60.13
19761;BME280;10039;42.632;23.408;2023-04-07T02:31:29;94639.22;;;2.88;60.49
19761;BME280;10039;42.632;23.408;2023-04-07T02:33:59;94645.94;;;2.75;60.97
19761;BME280;10039;42.632;23.408;2023-04-07T02:36:25;94671.66;;;2.99;60.95
19761;BME280;10039;42.632;23.408;2023-04-07T02:38:51;94673.53;;;3.05;60.57
19761;BME280;10039;42.632;23.408;2023-04-07T02:41:18;94660.59;;;2.72;61.04
19761;BME280;10039;42.632;23.408;2023-04-07T02:43:44;94689.66;;;2.86;61.82
19761;BME280;10039;42.632;23.408;2023-04-07T02:46:10;94699.81;;;2.88;61.91
19761;BME280;10039;42.632;23.408;2023-04-07T02:48:36;94690.00;;;2.81;62.10
19761;BME280;10039;42.632;23.408;2023-04-07T02:51:02;94686.97;;;2.79;62.06
19761;BME280;10039;42.632;23.408;2023-04-07T02:53:28;94688.13;;;2.82;62.33
19761;BME280;10039;42.632;23.408;2023-04-07T02:55:55;94687.00;;;2.83;62.18
19761;BME280;10039;42.632;23.408;2023-04-07T02:58:21;94691.56;;;2.89;61.92
19761;BME280;10039;42.632;23.408;2023-04-07T03:00:47;94698.72;;;2.96;62.03
19761;BME280;10039;42.632;23.408;2023-04-07T03:03:14;94699.16;;;3.08;61.52
19761;BME280;10039;42.632;23.408;2023-04-07T03:05:40;94688.22;;;3.03;61.36
19761;BME280;10039;42.632;23.408;2023-04-07T03:08:06;94704.47;;;3.12;61.30
19761;BME280;10039;42.632;23.408;2023-04-07T03:10:32;94720.59;;;3.00;61.83
19761;BME280;10039;42.632;23.408;2023-04-07T03:12:57;94723.22;;;3.03;62.02
19761;BME280;10039;42.632;23.408;2023-04-07T03:15:23;94734.59;;;3.11;62.08
19761;BME280;10039;42.632;23.408;2023-04-07T03:17:51;94728.59;;;3.14;61.72
19761;BME280;10039;42.632;23.408;2023-04-07T03:20:17;94691.53;;;2.86;61.90
19761;BME280;10039;42.632;23.408;2023-04-07T03:22:44;94724.78;;;3.11;62.14
19761;BME280;10039;42.632;23.408;2023-04-07T03:25:12;94708.13;;;2.93;61.85
19761;BME280;10039;42.632;23.408;2023-04-07T03:27:40;94674.53;;;2.76;61.98
19761;BME280;10039;42.632;23.408;2023-04-07T03:30:06;94702.78;;;2.79;61.65
19761;BME280;10039;42.632;23.408;2023-04-07T03:32:34;94690.72;;;2.78;62.11
19761;BME280;10039;42.632;23.408;2023-04-07T03:35:04;94691.91;;;2.84;62.46
19761;BME280;10039;42.632;23.408;2023-04-07T03:37:31;94696.81;;;2.93;62.48
19761;BME280;10039;42.632;23.408;2023-04-07T03:39:59;94653.44;;;2.69;62.14
19761;BME280;10039;42.632;23.408;2023-04-07T03:42:25;94687.00;;;2.83;62.43
19761;BME280;10039;42.632;23.408;2023-04-07T03:44:52;94719.03;;;2.92;62.43
19761;BME280;10039;42.632;23.408;2023-04-07T03:47:20;94664.16;;;2.43;62.94
19761;BME280;10039;42.632;23.408;2023-04-07T03:49:47;94651.78;;;2.47;62.79
19761;BME280;10039;42.632;23.408;2023-04-07T03:52:14;94666.06;;;2.43;62.69
19761;BME280;10039;42.632;23.408;2023-04-07T03:54:40;94668.31;;;2.41;63.07
19761;BME280;10039;42.632;23.408;2023-04-07T03:57:08;94693.56;;;2.52;62.69
19761;BME280;10039;42.632;23.408;2023-04-07T03:59:34;94680.41;;;2.49;62.81
19761;BME280;10039;42.632;23.408;2023-04-07T04:02:02;94689.88;;;2.60;62.60
19761;BME280;10039;42.632;23.408;2023-04-07T04:04:32;94702.00;;;2.75;61.36
19761;BME280;10039;42.632;23.408;2023-04-07T04:06:59;94700.47;;;2.67;59.51
19761;BME280;10039;42.632;23.408;2023-04-07T04:09:27;94678.44;;;2.35;58.93
19761;BME280;10039;42.632;23.408;2023-04-07T04:11:57;94714.59;;;2.45;59.12
19761;BME280;10039;42.632;23.408;2023-04-07T04:14:25;94704.22;;;2.19;58.15
19761;BME280;10039;42.632;23.408;2023-04-07T04:16:59;94665.44;;;2.10;57.23
19761;BME280;10039;42.632;23.408;2023-04-07T04:19:27;94663.59;;;2.14;57.71
19761;BME280;10039;42.632;23.408;2023-04-07T04:21:54;94701.34;;;2.35;57.81
19761;BME280;10039;42.632;23.408;2023-04-07T04:24:20;94712.41;;;2.54;57.01
19761;BME280;10039;42.632;23.408;2023-04-07T04:26:48;94691.22;;;2.37;57.70
19761;BME280;10039;42.632;23.408;2023-04-07T04:29:15;94752.03;;;2.75;56.78
19761;BME280;10039;42.632;23.408;2023-04-07T04:31:43;94730.16;;;2.64;58.01
19761;BME280;10039;42.632;23.408;2023-04-07T04:34:09;94711.00;;;2.71;58.23
19761;BME280;10039;42.632;23.408;2023-04-07T04:36:34;94717.81;;;2.75;57.46
19761;BME280;10039;42.632;23.408;2023-04-07T04:39:09;94733.75;;;2.96;56.17
19761;BME280;10039;42.632;23.408;2023-04-07T04:41:38;94727.75;;;2.99;57.50
19761;BME280;10039;42.632;23.408;2023-04-07T04:44:05;94749.25;;;3.08;56.89
19761;BME280;10039;42.632;23.408;2023-04-07T04:46:31;94734.44;;;2.90;57.59
19761;BME280;10039;42.632;23.408;2023-04-07T04:48:57;94746.59;;;3.01;58.11
19761;BME280;10039;42.632;23.408;2023-04-07T04:51:25;94750.69;;;2.95;58.60
19761;BME280;10039;42.632;23.408;2023-04-07T04:53:51;94744.31;;;3.03;58.88
19761;BME280;10039;42.632;23.408;2023-04-07T04:56:17;94713.47;;;3.04;58.77
19761;BME280;10039;42.632;23.408;2023-04-07T04:58:46;94763.69;;;3.35;59.36
19761;BME280;10039;42.632;23.408;2023-04-07T05:01:13;94730.31;;;2.89;60.03
19761;BME280;10039;42.632;23.408;2023-04-07T05:03:39;94721.03;;;3.12;59.98
19761;BME280;10039;42.632;23.408;2023-04-07T05:06:06;94745.41;;;2.95;60.32
19761;BME280;10039;42.632;23.408;2023-04-07T05:08:34;94712.03;;;2.56;61.79
19761;BME280;10039;42.632;23.408;2023-04-07T05:11:03;94723.00;;;2.61;61.86
19761;BME280;10039;42.632;23.408;2023-04-07T05:13:34;94747.16;;;2.77;62.05
19761;BME280;10039;42.632;23.408;2023-04-07T05:16:04;94730.69;;;2.87;61.84
19761;BME280;10039;42.632;23.408;2023-04-07T05:18:32;94752.16;;;2.89;61.37
19761;BME280;10039;42.632;23.408;2023-04-07T05:21:00;94763.81;;;2.88;61.44
19761;BME280;10039;42.632;23.408;2023-04-07T05:23:28;94724.56;;;2.73;61.45
19761;BME280;10039;42.632;23.408;2023-04-07T05:25:55;94746.88;;;2.89;61.92
19761;BME280;10039;42.632;23.408;2023-04-07T05:28:23;94740.88;;;2.96;62.13
19761;BME280;10039;42.632;23.408;2023-04-07T05:30:52;94748.94;;;3.20;61.39
19761;BME280;10039;42.632;23.408;2023-04-07T05:33:19;94761.03;;;3.28;61.31
19761;BME280;10039;42.632;23.408;2023-04-07T05:35:53;94755.03;;;3.34;61.05
19761;BME280;10039;42.632;23.408;2023-04-07T05:38:20;94775.81;;;3.50;60.63
19761;BME280;10039;42.632;23.408;2023-04-07T05:40:48;94777.00;;;3.59;60.49
19761;BME280;10039;42.632;23.408;2023-04-07T05:43:13;94770.97;;;3.59;60.08
19761;BME280;10039;42.632;23.408;2023-04-07T05:45:40;94731.69;;;3.33;60.65
19761;BME280;10039;42.632;23.408;2023-04-07T05:48:10;94742.88;;;3.13;61.17
19761;BME280;10039;42.632;23.408;2023-04-07T05:50:39;94738.41;;;3.20;60.76
19761;BME280;10039;42.632;23.408;2023-04-07T05:53:07;94755.63;;;3.07;60.95
19761;BME280;10039;42.632;23.408;2023-04-07T05:55:33;94755.38;;;3.29;60.55
19761;BME280;10039;42.632;23.408;2023-04-07T05:58:00;94752.88;;;3.54;60.75
19761;BME280;10039;42.632;23.408;2023-04-07T06:00:26;94765.03;;;3.79;60.06
19761;BME280;10039;42.632;23.408;2023-04-07T06:02:52;94757.53;;;3.92;59.45
19761;BME280;10039;42.632;23.408;2023-04-07T06:05:19;94733.38;;;3.79;58.84
19761;BME280;10039;42.632;23.408;2023-04-07T06:07:49;94785.44;;;4.07;58.63
19761;BME280;10039;42.632;23.408;2023-04-07T06:10:15;94753.38;;;4.01;58.37
19761;BME280;10039;42.632;23.408;2023-04-07T06:12:41;94734.19;;;4.15;58.49
19761;BME280;10039;42.632;23.408;2023-04-07T06:15:07;94748.53;;;4.31;57.87
19761;BME280;10039;42.632;23.408;2023-04-07T06:17:33;94783.28;;;4.57;57.42
19761;BME280;10039;42.632;23.408;2023-04-07T06:19:59;94790.81;;;4.52;57.83
19761;BME280;10039;42.632;23.408;2023-04-07T06:22:25;94733.44;;;4.25;58.02
19761;BME280;10039;42.632;23.408;2023-04-07T06:24:51;94769.28;;;4.67;57.58
19761;BME280;10039;42.632;23.408;2023-04-07T06:27:17;94753.44;;;4.50;57.63
19761;BME280;10039;42.632;23.408;2023-04-07T06:29:48;94779.88;;;4.88;56.82
19761;BME280;10039;42.632;23.408;2023-04-07T06:32:13;94747.03;;;4.75;55.51
19761;BME280;10039;42.632;23.408;2023-04-07T06:34:39;94770.81;;;5.07;54.91
19761;BME280;10039;42.632;23.408;2023-04-07T06:37:05;94741.31;;;5.08;54.51
19761;BME280;10039;42.632;23.408;2023-04-07T06:39:32;94758.25;;;5.35;53.93
19761;BME280;10039;42.632;23.408;2023-04-07T06:41:58;94782.38;;;5.68;53.55
19761;BME280;10039;42.632;23.408;2023-04-07T06:44:24;94784.59;;;5.84;53.62
19761;BME280;10039;42.632;23.408;2023-04-07T06:46:50;94738.16;;;5.58;52.64
19761;BME280;10039;42.632;23.408;2023-04-07T06:49:18;94767.91;;;5.94;53.33
19761;BME280;10039;42.632;23.408;2023-04-07T06:51:44;94763.66;;;6.10;52.25
19761;BME280;10039;42.632;23.408;2023-04-07T06:54:10;94749.25;;;6.11;52.07
19761;BME280;10039;42.632;23.408;2023-04-07T06:56:39;94742.09;;;6.08;50.29
19761;BME280;10039;42.632;23.408;2023-04-07T06:59:05;94774.31;;;6.58;51.74
19761;BME280;10039;42.632;23.408;2023-04-07T07:01:32;94755.00;;;6.61;51.13
19761;BME280;10039;42.632;23.408;2023-04-07T07:03:58;94755.13;;;6.90;50.15
19761;BME280;10039;42.632;23.408;2023-04-07T07:06:26;94733.22;;;6.83;51.26
19761;BME280;10039;42.632;23.408;2023-04-07T07:08:52;94749.25;;;7.13;50.92
19761;BME280;10039;42.632;23.408;2023-04-07T07:11:18;94750.22;;;7.33;50.25
19761;BME280;10039;42.632;23.408;2023-04-07T07:13:44;94783.06;;;7.79;50.04
19761;BME280;10039;42.632;23.408;2023-04-07T07:16:10;94769.53;;;7.67;48.44
19761;BME280;10039;42.632;23.408;2023-04-07T07:18:37;94766.25;;;7.89;49.70
19761;BME280;10039;42.632;23.408;2023-04-07T07:21:03;94782.31;;;8.42;48.29
19761;BME280;10039;42.632;23.408;2023-04-07T07:23:29;94762.50;;;8.13;45.91
19761;BME280;10039;42.632;23.408;2023-04-07T07:25:55;94787.69;;;8.05;46.22
19761;BME280;10039;42.632;23.408;2023-04-07T07:28:21;94744.66;;;8.17;46.89
19761;BME280;10039;42.632;23.408;2023-04-07T07:30:48;94776.06;;;8.52;46.30
19761;BME280;10039;42.632;23.408;2023-04-07T07:33:14;94763.72;;;8.65;45.12
19761;BME280;10039;42.632;23.408;2023-04-07T07:35:40;94773.69;;;8.84;44.64
19761;BME280;10039;42.632;23.408;2023-04-07T07:38:05;94755.66;;;8.94;45.23
19761;BME280;10039;42.632;23.408;2023-04-07T07:40:31;94770.00;;;9.00;46.04
19761;BME280;10039;42.632;23.408;2023-04-07T07:42:58;94755.41;;;9.08;45.69
19761;BME280;10039;42.632;23.408;2023-04-07T07:45:24;94780.56;;;9.50;44.45
19761;BME280;10039;42.632;23.408;2023-04-07T07:47:49;94760.22;;;9.59;43.59
19761;BME280;10039;42.632;23.408;2023-04-07T07:50:15;94790.06;;;9.51;42.17
19761;BME280;10039;42.632;23.408;2023-04-07T07:52:41;94778.63;;;9.08;43.96
19761;BME280;10039;42.632;23.408;2023-04-07T07:55:08;94773.56;;;9.36;43.88
19761;BME280;10039;42.632;23.408;2023-04-07T07:57:33;94777.22;;;9.65;44.39
19761;BME280;10039;42.632;23.408;2023-04-07T07:59:59;94781.41;;;9.86;43.96
19761;BME280;10039;42.632;23.408;2023-04-07T08:02:25;94794.31;;;9.87;41.58
19761;BME280;10039;42.632;23.408;2023-04-07T08:04:56;94745.22;;;9.26;41.47
19761;BME280;10039;42.632;23.408;2023-04-07T08:07:22;94762.94;;;9.13;39.82
19761;BME280;10039;42.632;23.408;2023-04-07T08:09:48;94764.63;;;9.46;40.74
19761;BME280;10039;42.632;23.408;2023-04-07T08:12:14;94771.13;;;9.45;39.72
19761;BME280;10039;42.632;23.408;2023-04-07T08:14:40;94764.94;;;9.29;39.22
19761;BME280;10039;42.632;23.408;2023-04-07T08:17:06;94768.69;;;9.54;40.10
19761;BME280;10039;42.632;23.408;2023-04-07T08:19:32;94760.31;;;9.33;39.52
19761;BME280;10039;42.632;23.408;2023-04-07T08:21:57;94759.81;;;9.18;39.93
19761;BME280;10039;42.632;23.408;2023-04-07T08:24:23;94750.69;;;8.74;39.53
19761;BME280;10039;42.632;23.408;2023-04-07T08:26:48;94779.88;;;8.77;40.05
19761;BME280;10039;42.632;23.408;2023-04-07T08:29:14;94792.00;;;9.04;39.94
19761;BME280;10039;42.632;23.408;2023-04-07T08:31:40;94797.66;;;9.06;41.27
19761;BME280;10039;42.632;23.408;2023-04-07T08:34:06;94774.34;;;9.14;39.39
19761;BME280;10039;42.632;23.408;2023-04-07T08:36:31;94740.50;;;8.91;39.60
19761;BME280;10039;42.632;23.408;2023-04-07T08:38:57;94777.41;;;9.12;39.92
19761;BME280;10039;42.632;23.408;2023-04-07T08:41:33;94771.16;;;9.22;39.64
19761;BME280;10039;42.632;23.408;2023-04-07T08:44:02;94754.72;;;9.04;39.45
19761;BME280;10039;42.632;23.408;2023-04-07T08:46:28;94739.00;;;8.90;40.41
19761;BME280;10039;42.632;23.408;2023-04-07T08:48:56;94758.75;;;9.12;40.06
19761;BME280;10039;42.632;23.408;2023-04-07T08:51:30;94786.19;;;9.32;39.96
19761;BME280;10039;42.632;23.408;2023-04-07T08:54:12;94783.72;;;9.22;40.49
19761;BME280;10039;42.632;23.408;2023-04-07T08:56:39;94785.78;;;9.11;40.83
19761;BME280;10039;42.632;23.408;2023-04-07T08:59:06;94784.63;;;9.12;40.94
19761;BME280;10039;42.632;23.408;2023-04-07T09:01:34;94794.59;;;9.08;40.27
19761;BME280;10039;42.632;23.408;2023-04-07T09:04:04;94760.22;;;8.94;40.57
19761;BME280;10039;42.632;23.408;2023-04-07T09:06:32;94756.25;;;9.05;40.62
19761;BME280;10039;42.632;23.408;2023-04-07T09:08:59;94784.38;;;9.26;39.93
19761;BME280;10039;42.632;23.408;2023-04-07T09:11:28;94763.81;;;9.07;40.13
19761;BME280;10039;42.632;23.408;2023-04-07T09:13:55;94743.38;;;9.00;39.30
19761;BME280;10039;42.632;23.408;2023-04-07T09:16:21;94753.00;;;8.94;40.71
19761;BME280;10039;42.632;23.408;2023-04-07T09:18:48;94756.44;;;9.14;39.42
19761;BME280;10039;42.632;23.408;2023-04-07T09:21:14;94787.53;;;9.21;39.21
19761;BME280;10039;42.632;23.408;2023-04-07T09:23:41;94758.53;;;9.26;40.23
19761;BME280;10039;42.632;23.408;2023-04-07T09:26:26;94791.50;;;9.55;39.29
19761;BME280;10039;42.632;23.408;2023-04-07T09:28:59;94788.28;;;9.64;40.02
19761;BME280;10039;42.632;23.408;2023-04-07T09:31:49;94768.13;;;9.63;39.76
19761;BME280;10039;42.632;23.408;2023-04-07T09:34:42;94778.47;;;9.80;38.43
19761;BME280;10039;42.632;23.408;2023-04-07T09:37:21;94798.84;;;9.90;39.46
19761;BME280;10039;42.632;23.408;2023-04-07T09:39:51;94798.38;;;9.95;38.69
19761;BME280;10039;42.632;23.408;2023-04-07T09:42:19;94765.75;;;9.68;38.28
19761;BME280;10039;42.632;23.408;2023-04-07T09:44:45;94775.44;;;9.78;39.08
19761;BME280;10039;42.632;23.408;2023-04-07T09:47:10;94783.66;;;9.87;39.08
19761;BME280;10039;42.632;23.408;2023-04-07T09:49:53;94763.72;;;9.76;38.43
19761;BME280;10039;42.632;23.408;2023-04-07T09:52:23;94794.88;;;9.98;38.93
19761;BME280;10039;42.632;23.408;2023-04-07T09:54:51;94799.09;;;9.76;39.02
19761;BME280;10039;42.632;23.408;2023-04-07T09:57:17;94775.50;;;9.55;38.90
19761;BME280;10039;42.632;23.408;2023-04-07T09:59:45;94769.53;;;9.28;39.73
19761;BME280;10039;42.632;23.408;2023-04-07T10:02:13;94777.22;;;9.46;40.16
19761;BME280;10039;42.632;23.408;2023-04-07T10:04:39;94766.41;;;9.33;39.99
19761;BME280;10039;42.632;23.408;2023-04-07T10:07:05;94776.25;;;9.36;40.49
19761;BME280;10039;42.632;23.408;2023-04-07T10:09:31;94802.25;;;9.71;41.12
19761;BME280;10039;42.632;23.408;2023-04-07T10:11:58;94800.59;;;9.77;40.50
19761;BME280;10039;42.632;23.408;2023-04-07T10:14:29;94778.16;;;9.55;39.93
19761;BME280;10039;42.632;23.408;2023-04-07T10:16:56;94762.31;;;9.48;40.91
19761;BME280;10039;42.632;23.408;2023-04-07T10:19:22;94804.44;;;9.96;40.60
19761;BME280;10039;42.632;23.408;2023-04-07T10:21:50;94773.13;;;9.80;39.96
19761;BME280;10039;42.632;23.408;2023-04-07T10:27:10;94742.53;;;9.88;38.80
19761;BME280;10039;42.632;23.408;2023-04-07T10:29:40;94786.94;;;10.14;39.32
19761;BME280;10039;42.632;23.408;2023-04-07T10:32:07;94795.03;;;10.30;39.13
19761;BME280;10039;42.632;23.408;2023-04-07T10:37:19;94802.03;;;10.40;39.46
19761;BME280;10039;42.632;23.408;2023-04-07T10:39:48;94768.44;;;10.07;39.65
19761;BME280;10039;42.632;23.408;2023-04-07T10:45:06;94779.63;;;9.79;39.48
19761;BME280;10039;42.632;23.408;2023-04-07T10:47:32;94784.75;;;9.70;40.10
19761;BME280;10039;42.632;23.408;2023-04-07T10:50:21;94762.47;;;9.61;40.42
19761;BME280;10039;42.632;23.408;2023-04-07T10:53:03;94811.59;;;10.02;39.41
19761;BME280;10039;42.632;23.408;2023-04-07T10:58:29;94815.94;;;10.12;39.35
19761;BME280;10039;42.632;23.408;2023-04-07T11:03:40;94777.84;;;9.73;39.96
19761;BME280;10039;42.632;23.408;2023-04-07T11:06:11;94786.25;;;9.91;40.41
19761;BME280;10039;42.632;23.408;2023-04-07T11:08:42;94777.63;;;9.83;41.31
19761;BME280;10039;42.632;23.408;2023-04-07T11:11:10;94789.94;;;9.77;42.23
19761;BME280;10039;42.632;23.408;2023-04-07T11:16:09;94814.38;;;9.72;41.67
19761;BME280;10039;42.632;23.408;2023-04-07T11:18:36;94799.47;;;9.55;42.43
19761;BME280;10039;42.632;23.408;2023-04-07T11:21:02;94789.78;;;9.65;42.25
19761;BME280;10039;42.632;23.408;2023-04-07T11:23:40;94811.53;;;9.63;41.50
19761;BME280;10039;42.632;23.408;2023-04-07T11:26:06;94775.66;;;9.25;41.39
19761;BME280;10039;42.632;23.408;2023-04-07T11:28:33;94824.41;;;9.65;42.17
19761;BME280;10039;42.632;23.408;2023-04-07T11:30:59;94810.28;;;9.68;41.37
19761;BME280;10039;42.632;23.408;2023-04-07T11:33:26;94785.19;;;9.46;41.60
19761;BME280;10039;42.632;23.408;2023-04-07T11:35:58;94769.44;;;9.32;42.17
19761;BME280;10039;42.632;23.408;2023-04-07T11:38:35;94813.50;;;9.59;42.24
19761;BME280;10039;42.632;23.408;2023-04-07T11:41:13;94769.34;;;9.39;43.27
19761;BME280;10039;42.632;23.408;2023-04-07T11:43:39;94778.97;;;9.52;41.96
19761;BME280;10039;42.632;23.408;2023-04-07T11:46:16;94787.44;;;9.47;42.49
19761;BME280;10039;42.632;23.408;2023-04-07T11:48:45;94768.25;;;9.36;42.53
19761;BME280;10039;42.632;23.408;2023-04-07T11:51:21;94758.97;;;9.44;43.29
19761;BME280;10039;42.632;23.408;2023-04-07T11:53:54;94780.03;;;9.58;42.52
19761;BME280;10039;42.632;23.408;2023-04-07T11:56:21;94773.72;;;9.49;42.78
19761;BME280;10039;42.632;23.408;2023-04-07T11:58:52;94801.13;;;9.69;42.22
19761;BME280;10039;42.632;23.408;2023-04-07T12:01:19;94806.81;;;9.90;43.19
19761;BME280;10039;42.632;23.408;2023-04-07T12:04:01;94813.69;;;10.10;43.32
19761;BME280;10039;42.632;23.408;2023-04-07T12:06:29;94775.09;;;9.96;43.58
19761;BME280;10039;42.632;23.408;2023-04-07T12:08:58;94782.09;;;9.70;42.21
19761;BME280;10039;42.632;23.408;2023-04-07T12:11:24;94798.75;;;9.74;42.59
19761;BME280;10039;42.632;23.408;2023-04-07T12:13:49;94804.25;;;9.87;42.86
19761;BME280;10039;42.632;23.408;2023-04-07T12:16:16;94792.34;;;9.72;42.33
19761;BME280;10039;42.632;23.408;2023-04-07T12:18:42;94773.25;;;9.73;42.69
19761;BME280;10039;42.632;23.408;2023-04-07T12:21:08;94802.66;;;9.89;43.39
19761;BME280;10039;42.632;23.408;2023-04-07T12:23:34;94759.75;;;9.64;42.85
19761;BME280;10039;42.632;23.408;2023-04-07T12:25:59;94784.91;;;9.17;43.72
19761;BME280;10039;42.632;23.408;2023-04-07T12:28:26;94795.88;;;9.65;43.78
19761;BME280;10039;42.632;23.408;2023-04-07T12:30:53;94820.59;;;9.66;43.21
19761;BME280;10039;42.632;23.408;2023-04-07T12:33:18;94798.75;;;9.55;43.59
19761;BME280;10039;42.632;23.408;2023-04-07T12:35:44;94785.28;;;9.62;43.79
19761;BME280;10039;42.632;23.408;2023-04-07T12:38:10;94774.28;;;9.79;43.29
19761;BME280;10039;42.632;23.408;2023-04-07T12:40:36;94818.44;;;10.03;44.39
19761;BME280;10039;42.632;23.408;2023-04-07T12:43:03;94814.19;;;10.05;42.61
19761;BME280;10039;42.632;23.408;2023-04-07T12:45:29;94823.81;;;10.19;43.08
19761;BME280;10039;42.632;23.408;2023-04-07T12:47:56;94818.13;;;10.17;42.78
19761;BME280;10039;42.632;23.408;2023-04-07T12:50:22;94793.06;;;10.14;43.07
19761;BME280;10039;42.632;23.408;2023-04-07T12:52:50;94823.31;;;10.43;42.71
19761;BME280;10039;42.632;23.408;2023-04-07T12:55:19;94823.91;;;10.51;43.20
19761;BME280;10039;42.632;23.408;2023-04-07T12:57:44;94835.94;;;10.59;42.93
19761;BME280;10039;42.632;23.408;2023-04-07T13:00:12;94775.06;;;9.99;42.75
19761;BME280;10039;42.632;23.408;2023-04-07T13:02:38;94838.03;;;10.12;43.05
19761;BME280;10039;42.632;23.408;2023-04-07T13:05:03;94824.97;;;10.18;43.07
19761;BME280;10039;42.632;23.408;2023-04-07T13:07:30;94823.25;;;10.27;43.16
19761;BME280;10039;42.632;23.408;2023-04-07T13:09:55;94815.00;;;10.22;43.29
19761;BME280;10039;42.632;23.408;2023-04-07T13:12:25;94840.03;;;10.28;42.69
19761;BME280;10039;42.632;23.408;2023-04-07T13:14:50;94824.63;;;10.16;43.00
19761;BME280;10039;42.632;23.408;2023-04-07T13:17:16;94830.91;;;10.06;43.11
19761;BME280;10039;42.632;23.408;2023-04-07T13:19:43;94805.09;;;9.80;42.90
19761;BME280;10039;42.632;23.408;2023-04-07T13:22:11;94803.72;;;9.72;43.62
19761;BME280;10039;42.632;23.408;2023-04-07T13:24:38;94833.25;;;9.81;43.61
19761;BME280;10039;42.632;23.408;2023-04-07T13:27:04;94834.66;;;9.89;43.48
19761;BME280;10039;42.632;23.408;2023-04-07T13:29:30;94833.13;;;9.88;44.08
19761;BME280;10039;42.632;23.408;2023-04-07T13:32:09;94835.69;;;9.95;42.93
19761;BME280;10039;42.632;23.408;2023-04-07T13:34:38;94827.91;;;10.04;43.84
19761;BME280;10039;42.632;23.408;2023-04-07T13:37:04;94839.03;;;9.99;43.60